createdAt,value
2023-03-30T00:02:13.185Z,48.90
2023-03-30T00:07:38.174Z,48.70
2023-03-30T00:13:01.014Z,48.80
2023-03-30T00:18:23.993Z,48.60
2023-03-30T00:23:49.053Z,48.70
2023-03-30T00:29:12.052Z,48.80
2023-03-30T00:34:35.472Z,48.80
2023-03-30T00:40:01.077Z,48.80
2023-03-30T00:45:29.992Z,48.90
2023-03-30T00:50:55.020Z,49.90
2023-03-30T00:56:27.089Z,48.90
2023-03-30T01:01:57.033Z,49.00
2023-03-30T01:07:21.065Z,48.90
2023-03-30T01:12:46.057Z,49.00
2023-03-30T01:18:26.309Z,48.90
2023-03-30T01:24:34.121Z,49.00
2023-03-30T01:30:19.118Z,49.10
2023-03-30T01:36:17.878Z,49.00
2023-03-30T01:41:50.082Z,49.10
2023-03-30T01:47:17.981Z,49.10
2023-03-30T01:58:17.162Z,49.50
2023-03-30T02:03:43.144Z,49.30
2023-03-30T02:09:08.086Z,49.30
2023-03-30T02:14:39.047Z,49.20
2023-03-30T02:20:03.031Z,49.70
2023-03-30T02:25:26.069Z,49.50
2023-03-30T02:30:54.051Z,49.80
2023-03-30T02:36:28.128Z,49.70
2023-03-30T02:42:13.093Z,50.80
2023-03-30T02:47:51.367Z,51.10
2023-03-30T02:53:23.046Z,52.00
2023-03-30T02:58:55.112Z,51.80
2023-03-30T03:04:22.094Z,52.80
2023-03-30T03:10:09.207Z,52.20
2023-03-30T03:15:33.090Z,52.70
2023-03-30T03:21:01.207Z,53.00
2023-03-30T03:26:25.058Z,54.00
2023-03-30T03:31:48.093Z,54.00
2023-03-30T03:37:16.186Z,54.10
2023-03-30T03:42:40.092Z,54.30
2023-03-30T03:48:05.227Z,54.80
2023-03-30T03:53:41.116Z,54.30
2023-03-30T03:59:05.105Z,54.50
2023-03-30T04:04:29.142Z,54.30
2023-03-30T04:09:54.213Z,54.30
2023-03-30T04:15:31.116Z,54.00
2023-03-30T04:27:49.361Z,54.10
2023-03-30T04:33:52.366Z,54.20
2023-03-30T04:39:28.232Z,54.20
2023-03-30T04:45:16.230Z,54.70
2023-03-30T04:51:00.249Z,54.50
2023-03-30T04:56:42.310Z,54.80
2023-03-30T05:02:30.759Z,54.60
2023-03-30T05:08:00.162Z,55.00
2023-03-30T05:13:43.670Z,54.80
2023-03-30T05:19:37.212Z,55.10
2023-03-30T05:25:10.220Z,54.70
2023-03-30T05:30:55.276Z,54.80
2023-03-30T05:36:52.131Z,54.30
2023-03-30T05:42:28.285Z,54.70
2023-03-30T05:48:02.276Z,54.60
2023-03-30T05:59:53.498Z,54.60
2023-03-30T06:05:31.372Z,54.90
2023-03-30T06:11:02.464Z,54.70
2023-03-30T06:16:35.271Z,54.80
2023-03-30T06:22:04.240Z,55.00
2023-03-30T06:27:39.270Z,55.10
2023-03-30T06:33:02.247Z,55.00
2023-03-30T06:38:32.259Z,55.00
2023-03-30T06:43:57.222Z,55.00
2023-03-30T06:49:27.296Z,55.20
2023-03-30T06:55:25.210Z,55.20
2023-03-30T07:00:51.440Z,55.20
2023-03-30T07:06:37.247Z,55.40
2023-03-30T07:12:04.222Z,55.60
2023-03-30T07:17:30.507Z,55.70
2023-03-30T07:22:55.259Z,56.00
2023-03-30T07:28:20.357Z,55.90
2023-03-30T07:33:49.587Z,56.00
2023-03-30T07:39:15.405Z,56.10
2023-03-30T07:44:41.283Z,56.30
2023-03-30T07:50:08.300Z,56.40
2023-03-30T07:55:32.293Z,56.40
2023-03-30T08:01:05.539Z,56.50
2023-03-30T08:06:49.276Z,56.50
2023-03-30T08:12:14.418Z,56.70
2023-03-30T08:17:37.484Z,56.90
2023-03-30T08:23:02.416Z,56.90
2023-03-30T08:28:28.448Z,57.10
2023-03-30T08:33:52.455Z,57.20
2023-03-30T08:39:18.545Z,57.30
2023-03-30T08:44:44.364Z,57.20
2023-03-30T08:50:17.463Z,57.40
2023-03-30T08:55:49.451Z,57.20
2023-03-30T09:01:22.449Z,56.60
2023-03-30T09:06:57.496Z,56.50
2023-03-30T09:12:38.494Z,56.20
2023-03-30T09:18:07.627Z,56.00
2023-03-30T09:23:33.424Z,55.80
2023-03-30T09:29:06.427Z,55.70
2023-03-30T09:34:41.422Z,55.60
2023-03-30T09:40:17.396Z,55.70
2023-03-30T09:45:45.673Z,55.80
2023-03-30T09:51:11.334Z,55.60
2023-03-30T09:56:43.440Z,55.80
2023-03-30T10:02:26.594Z,55.80
2023-03-30T10:08:06.441Z,55.20
2023-03-30T10:13:33.518Z,54.70
2023-03-30T10:19:04.343Z,54.20
2023-03-30T10:24:35.447Z,54.40
2023-03-30T10:30:26.065Z,54.30
2023-03-30T10:36:01.499Z,54.50
2023-03-30T10:41:30.700Z,55.20
2023-03-30T10:46:55.562Z,54.50
2023-03-30T10:52:26.456Z,53.40
2023-03-30T10:57:59.713Z,53.50
2023-03-30T11:03:33.026Z,52.90
2023-03-30T11:09:04.449Z,51.80
2023-03-30T11:14:38.389Z,51.70
2023-03-30T11:20:04.470Z,51.40
2023-03-30T11:25:36.480Z,50.30
2023-03-30T11:31:06.494Z,49.70
2023-03-30T11:36:38.510Z,48.80
2023-03-30T11:42:17.453Z,48.90
2023-03-30T11:47:59.684Z,48.70
2023-03-30T11:53:35.372Z,48.30
2023-03-30T11:59:05.975Z,48.40
2023-03-30T12:04:38.210Z,49.20
2023-03-30T12:10:10.905Z,49.90
2023-03-30T12:15:49.604Z,50.30
2023-03-30T12:21:23.529Z,51.00
2023-03-30T12:27:03.853Z,51.20
2023-03-30T12:32:45.587Z,51.70
2023-03-30T12:38:13.545Z,51.90
2023-03-30T12:43:44.450Z,52.30
2023-03-30T12:49:15.460Z,52.40
2023-03-30T12:55:11.533Z,52.60
2023-03-30T13:01:12.689Z,53.20
2023-03-30T13:06:40.487Z,53.40
2023-03-30T13:12:37.478Z,53.50
2023-03-30T13:18:12.681Z,53.50
2023-03-30T13:23:44.460Z,53.50
2023-03-30T13:29:20.452Z,53.90
2023-03-30T13:35:09.529Z,54.10
2023-03-30T13:40:46.111Z,55.00
2023-03-30T13:46:28.610Z,56.10
2023-03-30T13:51:53.563Z,56.10
2023-03-30T13:57:21.584Z,56.10
2023-03-30T14:02:45.587Z,56.30
2023-03-30T14:08:10.617Z,55.60
2023-03-30T14:13:38.724Z,55.40
2023-03-30T14:19:19.598Z,55.30
2023-03-30T14:24:44.756Z,54.90
2023-03-30T14:30:10.585Z,54.50
2023-03-30T14:35:33.773Z,54.20
2023-03-30T14:40:57.524Z,54.50
2023-03-30T15:00:14.069Z,52.30
2023-03-30T15:06:15.626Z,52.60
2023-03-30T15:18:16.991Z,52.10
2023-03-30T15:23:37.491Z,52.00
2023-03-30T15:29:07.638Z,52.20
2023-03-30T15:34:31.571Z,52.20
2023-03-30T15:40:03.627Z,51.80
2023-03-30T15:45:27.604Z,51.30
2023-03-30T15:50:51.614Z,51.30
2023-03-30T15:56:21.649Z,51.10
2023-03-30T16:01:59.952Z,51.00
2023-03-30T16:07:28.617Z,51.30
2023-03-30T16:12:57.670Z,51.60
2023-03-30T16:18:20.666Z,51.80
2023-03-30T16:23:50.672Z,51.30
2023-03-30T16:29:22.712Z,51.30
2023-03-30T16:34:48.611Z,51.30
2023-03-30T16:40:25.590Z,50.90
2023-03-30T16:45:54.644Z,50.80
2023-03-30T16:51:38.694Z,51.20
2023-03-30T16:57:05.479Z,51.40
2023-03-30T17:09:47.464Z,51.50
2023-03-30T17:15:13.663Z,51.40
2023-03-30T17:20:43.687Z,51.00
2023-03-30T17:26:08.734Z,51.00
2023-03-30T17:31:33.010Z,51.00
2023-03-30T17:36:59.693Z,50.90
2023-03-30T17:42:22.688Z,51.00
2023-03-30T17:47:45.774Z,51.00
2023-03-30T17:53:16.330Z,51.10
2023-03-30T17:58:40.855Z,51.20
2023-03-30T18:04:09.738Z,51.10
2023-03-30T18:09:21.628Z,51.20
2023-03-30T18:14:38.876Z,51.20
2023-03-30T18:19:42.034Z,51.40
2023-03-30T18:24:56.550Z,51.50
2023-03-30T18:30:37.854Z,51.80
2023-03-30T18:36:08.561Z,51.90
2023-03-30T18:42:05.288Z,52.00
2023-03-30T18:48:06.706Z,52.10
2023-03-30T18:53:44.547Z,52.20
2023-03-30T18:59:15.043Z,52.30
2023-03-30T19:04:30.728Z,52.30
2023-03-30T19:10:08.274Z,52.40
2023-03-30T19:29:07.678Z,52.50
2023-03-30T19:34:30.816Z,52.70
2023-03-30T19:39:53.899Z,52.60
2023-03-30T19:45:19.773Z,52.70
2023-03-30T19:50:55.967Z,52.70
2023-03-30T20:09:26.927Z,52.80
2023-03-30T20:21:09.840Z,52.80
2023-03-30T20:26:36.997Z,52.90
2023-03-30T20:32:05.998Z,52.70
2023-03-30T20:37:29.790Z,52.80
2023-03-30T20:42:55.940Z,52.80
2023-03-30T20:48:22.904Z,52.80
2023-03-30T20:53:48.766Z,52.70
2023-03-30T20:59:16.706Z,52.70
2023-03-30T21:04:41.001Z,52.80
2023-03-30T21:10:03.796Z,52.90
2023-03-30T21:15:53.753Z,52.80
2023-03-30T21:21:24.829Z,53.00
2023-03-30T21:26:47.770Z,53.00
2023-03-30T21:32:14.849Z,53.10
2023-03-30T21:37:38.786Z,53.20
2023-03-30T21:43:03.021Z,53.30
2023-03-30T21:48:30.796Z,53.40
2023-03-30T21:53:56.836Z,53.60
2023-03-30T21:59:20.881Z,53.60
2023-03-30T22:04:45.955Z,53.70
2023-03-30T22:10:09.818Z,53.50
2023-03-30T22:15:32.837Z,53.60
2023-03-30T22:20:58.244Z,53.40
2023-03-30T22:26:20.986Z,53.40
2023-03-30T22:31:44.883Z,53.40
2023-03-30T22:37:10.832Z,53.40
2023-03-30T22:42:34.990Z,53.30
2023-03-30T22:48:08.951Z,53.30
2023-03-30T22:54:48.561Z,53.10
2023-03-30T23:00:34.921Z,53.30
2023-03-30T23:05:58.891Z,53.30
2023-03-30T23:11:21.925Z,53.40
2023-03-30T23:16:46.836Z,53.40
2023-03-30T23:22:09.863Z,53.50
2023-03-30T23:27:32.927Z,53.60
2023-03-30T23:32:57.985Z,53.60
2023-03-30T23:38:20.966Z,53.50
2023-03-30T23:43:43.867Z,53.60
2023-03-30T23:49:10.063Z,53.50
2023-03-30T23:54:32.943Z,53.50
2023-03-30T23:59:56.895Z,53.60
